Time;durP1;ratioP1;P1;durP2;ratioP2;P2;SDS_P1;SDS_P2;PMS_P1;PMS_P2;Temp;Humidity;BMP_temperature;BMP_pressure;BME280_temperature;BME280_humidity;BME280_pressure;Samples;Min_cycle;Max_cycle;Signal;HPM_P1;HPM_P2
2022/01/20 00:02:09;;;;;;;6.63;6.00;;;2.30;88.40;;;;;;5052660;28;20240;-59
2022/01/20 00:04:44;;;;;;;8.77;5.53;;;2.30;88.70;;;;;;5052629;28;20205;-55
2022/01/20 00:26:28;;;;;;;8.65;5.40;;;2.20;89.30;;;;;;5056210;28;20209;-56
2022/01/20 00:28:59;;;;;;;5.78;4.32;;;2.30;89.20;;;;;;5055154;28;20684;-60
2022/01/20 00:31:34;;;;;;;5.10;4.60;;;2.20;89.00;;;;;;5056472;28;20205;-59
2022/01/20 00:34:13;;;;;;;6.13;4.43;;;2.20;89.20;;;;;;5056375;28;20201;-59
2022/01/20 00:39:26;;;;;;;5.82;4.95;;;2.20;89.30;;;;;;5056333;28;20204;-60
2022/01/20 00:41:53;;;;;;;6.35;5.00;;;2.20;89.30;;;;;;5056273;28;20228;-57
2022/01/20 00:44:20;;;;;;;5.60;4.35;;;2.10;89.80;;;;;;5054664;28;20224;-58
2022/01/20 00:46:46;;;;;;;5.43;4.60;;;2.10;89.90;;;;;;5056023;28;20201;-60
2022/01/20 00:49:16;;;;;;;5.70;5.03;;;2.10;90.20;;;;;;5056072;28;20216;-57
2022/01/20 00:51:43;;;;;;;5.55;4.43;;;2.10;90.30;;;;;;5055979;28;20288;-59
2022/01/20 00:54:10;;;;;;;5.15;4.45;;;2.10;90.40;;;;;;5056121;28;20304;-59
2022/01/20 00:56:37;;;;;;;5.00;4.32;;;2.10;90.20;;;;;;5055853;28;20692;-60
2022/01/20 00:59:04;;;;;;;4.60;4.20;;;2.20;89.70;;;;;;5054344;28;20206;-59
2022/01/20 01:01:31;;;;;;;5.28;4.43;;;2.30;89.60;;;;;;5055886;28;20201;-59
2022/01/20 01:03:57;;;;;;;4.53;4.13;;;2.20;89.00;;;;;;5055861;28;20201;-57
2022/01/20 01:06:38;;;;;;;6.10;4.22;;;2.30;89.60;;;;;;5055591;28;20308;-57
2022/01/20 01:09:06;;;;;;;5.22;4.43;;;2.20;89.70;;;;;;5035655;28;20201;-61
2022/01/20 01:11:33;;;;;;;6.05;4.53;;;2.20;90.10;;;;;;5035676;28;20224;-61
2022/01/20 01:14:02;;;;;;;5.70;4.32;;;2.20;90.10;;;;;;5034248;28;20262;-61
2022/01/20 01:16:41;;;;;;;4.95;4.45;;;2.20;90.10;;;;;;5035629;28;20237;-59
2022/01/20 01:22:04;;;;;;;4.47;4.10;;;2.10;90.60;;;;;;5035305;28;20676;-59
2022/01/20 01:24:31;;;;;;;4.45;4.05;;;2.00;91.00;;;;;;5035498;28;20216;-61
2022/01/20 01:26:58;;;;;;;5.35;4.10;;;1.90;91.70;;;;;;5035486;28;20296;-61
2022/01/20 01:29:43;;;;;;;6.07;4.55;;;2.00;92.10;;;;;;5033957;28;20260;-61
2022/01/20 01:32:13;;;;;;;6.28;4.38;;;2.00;91.80;;;;;;5035305;28;20209;-59
2022/01/20 01:34:46;;;;;;;5.88;4.32;;;2.00;91.60;;;;;;5034776;28;20264;-63
2022/01/20 01:37:35;;;;;;;4.50;3.92;;;2.00;91.50;;;;;;5040655;28;20695;-61
2022/01/20 01:40:06;;;;;;;5.38;4.22;;;1.90;91.90;;;;;;5055068;28;20209;-60
2022/01/20 01:42:39;;;;;;;4.50;4.10;;;1.90;91.90;;;;;;5055107;28;20209;-63
2022/01/20 01:45:07;;;;;;;4.68;3.75;;;1.80;92.30;;;;;;5053713;28;20263;-59
2022/01/20 01:47:34;;;;;;;4.30;3.50;;;1.80;92.80;;;;;;5054908;28;20687;-60
2022/01/20 01:50:01;;;;;;;4.72;3.88;;;1.80;93.20;;;;;;5054867;28;20201;-57
2022/01/20 01:52:29;;;;;;;3.88;3.47;;;1.70;93.40;;;;;;5054702;28;20212;-59
2022/01/20 01:54:56;;;;;;;4.78;3.65;;;1.80;93.50;;;;;;5054832;28;20292;-66
2022/01/20 01:57:24;;;;;;;3.80;3.45;;;1.80;93.40;;;;;;5054694;28;20344;-58
2022/01/20 01:59:51;;;;;;;5.85;4.35;;;1.90;93.60;;;;;;5053534;28;20636;-62
2022/01/20 02:02:18;;;;;;;4.25;3.70;;;1.90;93.20;;;;;;5054732;28;20205;-61
2022/01/20 02:04:45;;;;;;;4.05;3.60;;;1.80;93.00;;;;;;5054720;28;20211;-62
2022/01/20 02:07:41;;;;;;;4.72;3.95;;;1.80;93.20;;;;;;5054448;28;20299;-59
2022/01/20 02:18:36;;;;;;;3.92;3.50;;;1.70;93.60;;;;;;5054388;28;20209;-60
2022/01/20 02:21:06;;;;;;;5.78;3.65;;;1.70;93.60;;;;;;5054252;28;20205;-59
2022/01/20 02:23:32;;;;;;;6.70;3.83;;;1.70;93.60;;;;;;5054335;28;20202;-61
2022/01/20 02:26:00;;;;;;;3.88;3.30;;;1.70;93.50;;;;;;5054175;28;20232;-60
2022/01/20 02:28:28;;;;;;;4.97;4.00;;;1.70;93.50;;;;;;5052841;28;20312;-59
2022/01/20 02:30:56;;;;;;;4.10;3.40;;;1.80;93.60;;;;;;5054145;28;20210;-59
2022/01/20 02:33:25;;;;;;;3.75;3.15;;;1.80;93.20;;;;;;5054103;28;20209;-58
2022/01/20 02:35:56;;;;;;;5.40;3.72;;;1.80;93.20;;;;;;5053942;28;20209;-62
2022/01/20 02:38:31;;;;;;;6.20;3.63;;;1.80;93.30;;;;;;5053927;28;20323;-58
2022/01/20 02:46:28;;;;;;;4.47;3.42;;;2.10;93.30;;;;;;5053068;28;20211;-60
2022/01/20 02:48:55;;;;;;;4.90;3.45;;;2.10;92.40;;;;;;5053830;28;20208;-59
2022/01/20 02:51:22;;;;;;;4.60;3.15;;;2.10;92.50;;;;;;5053679;28;20206;-60
2022/01/20 02:53:51;;;;;;;3.47;2.90;;;2.10;92.80;;;;;;5053605;28;20205;-61
2022/01/20 02:56:19;;;;;;;3.30;2.85;;;2.00;92.60;;;;;;5053620;28;20212;-64
2022/01/20 02:58:46;;;;;;;3.20;2.75;;;2.10;92.80;;;;;;5052436;28;20205;-57
2022/01/20 03:01:13;;;;;;;3.05;2.75;;;2.10;92.80;;;;;;5053543;28;20206;-60
2022/01/20 03:03:40;;;;;;;3.10;2.80;;;2.10;92.80;;;;;;5053638;28;20201;-62
2022/01/20 03:06:07;;;;;;;3.90;2.80;;;2.20;92.70;;;;;;5053276;28;20292;-60
2022/01/20 03:08:34;;;;;;;2.83;2.63;;;2.30;92.30;;;;;;5053385;28;20224;-59
2022/01/20 03:11:03;;;;;;;2.70;2.40;;;2.30;92.20;;;;;;5053378;28;20206;-57
2022/01/20 03:13:30;;;;;;;2.40;2.20;;;2.30;91.70;;;;;;5051916;28;20231;-61
2022/01/20 03:15:56;;;;;;;2.63;2.42;;;2.30;92.10;;;;;;5053315;28;20240;-62
2022/01/20 03:18:23;;;;;;;2.30;2.10;;;2.40;92.20;;;;;;5053238;28;20315;-58
2022/01/20 03:20:50;;;;;;;3.45;2.30;;;2.40;91.90;;;;;;5052971;28;20731;-61
2022/01/20 03:23:17;;;;;;;2.50;2.28;;;2.40;92.20;;;;;;5053175;28;20237;-57
2022/01/20 03:25:44;;;;;;;2.60;2.40;;;2.40;91.90;;;;;;5053217;28;20205;-59
2022/01/20 03:28:12;;;;;;;2.97;2.47;;;2.50;92.10;;;;;;5052513;28;20229;-58
2022/01/20 03:30:39;;;;;;;3.03;2.72;;;2.50;92.00;;;;;;5053104;28;20288;-61
2022/01/20 03:33:06;;;;;;;3.20;2.85;;;2.60;92.00;;;;;;5053135;28;20205;-61
2022/01/20 03:35:33;;;;;;;3.95;2.50;;;2.50;92.00;;;;;;5052805;28;20205;-60
2022/01/20 03:38:00;;;;;;;2.83;2.63;;;2.60;92.20;;;;;;5052955;28;20233;-61
2022/01/20 03:40:27;;;;;;;2.58;2.38;;;2.70;92.00;;;;;;5053068;28;20205;-62
2022/01/20 03:42:54;;;;;;;3.88;2.78;;;2.70;92.10;;;;;;5052925;28;20293;-62
2022/01/20 03:45:25;;;;;;;3.17;2.70;;;2.70;92.00;;;;;;5051678;28;20201;-61
2022/01/20 03:47:55;;;;;;;3.70;2.55;;;2.70;91.80;;;;;;5052745;28;20209;-62
2022/01/20 03:53:07;;;;;;;3.65;2.28;;;2.70;92.40;;;;;;5052892;28;20281;-58
2022/01/20 03:55:33;;;;;;;3.47;2.90;;;2.70;92.00;;;;;;5052852;28;20288;-61
2022/01/20 03:58:00;;;;;;;4.57;3.00;;;2.80;91.80;;;;;;5052555;28;20229;-60
2022/01/20 04:00:28;;;;;;;3.70;3.00;;;2.70;91.70;;;;;;5051404;28;20220;-61
2022/01/20 04:02:55;;;;;;;3.67;3.25;;;2.80;91.90;;;;;;5052646;28;20209;-60
2022/01/20 04:05:22;;;;;;;4.60;3.45;;;2.80;91.70;;;;;;5052786;28;20212;-61
2022/01/20 04:07:49;;;;;;;4.03;3.40;;;2.80;91.80;;;;;;5052489;28;20207;-60
2022/01/20 04:10:16;;;;;;;4.57;3.63;;;2.70;91.90;;;;;;5052678;28;20244;-57
2022/01/20 04:12:43;;;;;;;4.20;3.47;;;2.90;92.10;;;;;;5052498;28;20241;-57
2022/01/20 04:15:10;;;;;;;4.93;3.42;;;2.90;91.60;;;;;;5051187;28;20205;-59
2022/01/20 04:17:42;;;;;;;4.43;3.15;;;3.00;91.50;;;;;;5052410;28;20702;-57
2022/01/20 04:20:10;;;;;;;3.50;2.95;;;3.00;91.10;;;;;;5052573;28;20212;-57
2022/01/20 04:22:37;;;;;;;4.43;3.15;;;3.00;90.80;;;;;;5052400;28;20201;-63
2022/01/20 04:25:04;;;;;;;4.70;3.10;;;2.80;90.90;;;;;;5052748;28;20202;-61
2022/01/20 04:27:31;;;;;;;3.50;2.85;;;2.70;91.50;;;;;;5052293;28;20233;-60
2022/01/20 04:29:58;;;;;;;3.65;3.20;;;2.70;91.50;;;;;;5051334;28;20198;-59
2022/01/20 04:32:25;;;;;;;3.70;3.20;;;2.80;91.70;;;;;;5052351;28;20674;-60
2022/01/20 04:34:54;;;;;;;3.20;2.80;;;2.80;91.50;;;;;;5052467;28;20687;-61
2022/01/20 04:37:21;;;;;;;3.65;3.20;;;2.90;91.20;;;;;;5052026;28;20272;-61
2022/01/20 04:39:50;;;;;;;4.55;3.40;;;2.90;90.90;;;;;;5052287;28;20253;-61
2022/01/20 04:42:18;;;;;;;4.40;3.25;;;2.90;91.10;;;;;;5052265;28;20206;-61
2022/01/20 04:44:51;;;;;;;3.97;2.80;;;2.90;91.30;;;;;;5051152;28;20741;-62
2022/01/20 04:47:31;;;;;;;3.45;3.15;;;3.00;90.90;;;;;;5052294;28;20241;-59
2022/01/20 04:58:13;;;;;;;4.55;3.65;;;3.10;90.70;;;;;;5051489;28;20632;-61
2022/01/20 05:00:40;;;;;;;3.22;2.92;;;3.10;90.20;;;;;;5052155;28;20674;-60
2022/01/20 05:03:07;;;;;;;3.90;2.80;;;3.10;90.10;;;;;;5051948;28;20542;-61
2022/01/20 05:05:35;;;;;;;4.57;3.50;;;2.90;90.80;;;;;;5052283;28;20201;-62
2022/01/20 05:08:02;;;;;;;4.25;3.30;;;2.80;91.00;;;;;;5051943;28;20292;-62
2022/01/20 05:10:30;;;;;;;4.47;3.53;;;2.80;91.80;;;;;;5055712;28;20565;-61
2022/01/20 05:13:08;;;;;;;7.47;3.70;;;2.90;91.70;;;;;;5055504;28;20333;-62
2022/01/20 05:15:35;;;;;;;4.10;3.35;;;3.00;91.70;;;;;;5054933;28;20263;-63
2022/01/20 05:18:02;;;;;;;6.40;4.15;;;2.80;91.40;;;;;;5055498;28;20229;-61
2022/01/20 05:20:29;;;;;;;5.43;3.65;;;2.80;92.20;;;;;;5055529;28;20211;-62
2022/01/20 05:22:57;;;;;;;6.05;3.85;;;2.70;92.30;;;;;;5055290;28;20202;-61
2022/01/20 05:25:24;;;;;;;4.30;3.90;;;2.60;92.40;;;;;;5055424;28;20212;-62
2022/01/20 05:27:51;;;;;;;6.03;3.95;;;2.70;92.80;;;;;;5055320;28;20312;-62
2022/01/20 05:30:18;;;;;;;6.97;4.40;;;2.60;92.60;;;;;;5053897;28;20288;-62
2022/01/20 05:32:45;;;;;;;5.93;4.03;;;2.60;92.90;;;;;;5055303;28;20202;-63
2022/01/20 05:35:12;;;;;;;4.50;3.80;;;2.60;93.40;;;;;;5055170;28;20215;-62
2022/01/20 05:37:38;;;;;;;7.88;4.60;;;2.70;93.40;;;;;;5054836;28;20244;-61
2022/01/20 05:40:08;;;;;;;5.10;3.85;;;2.60;93.10;;;;;;5055132;28;20300;-62
2022/01/20 05:42:37;;;;;;;5.00;3.92;;;2.60;93.40;;;;;;5054992;28;20212;-62
2022/01/20 05:45:06;;;;;;;6.35;4.18;;;2.60;93.50;;;;;;5053859;28;20202;-62
2022/01/20 05:47:35;;;;;;;5.60;4.28;;;2.60;93.20;;;;;;5054940;28;20655;-64
2022/01/20 05:50:02;;;;;;;5.90;3.90;;;2.60;93.20;;;;;;5054955;28;20237;-63
2022/01/20 05:52:29;;;;;;;5.65;4.15;;;2.70;93.30;;;;;;5054750;28;20211;-61
2022/01/20 05:54:56;;;;;;;4.95;3.75;;;2.70;93.00;;;;;;5054743;28;20212;-63
2022/01/20 05:57:24;;;;;;;4.45;3.80;;;2.70;92.80;;;;;;5054610;28;20201;-62
2022/01/20 05:59:51;;;;;;;7.47;4.13;;;2.60;92.80;;;;;;5053464;28;20259;-62
2022/01/20 06:02:33;;;;;;;7.20;4.40;;;2.70;93.00;;;;;;5054693;28;20223;-62
2022/01/20 06:05:00;;;;;;;7.30;4.45;;;2.70;92.80;;;;;;5054552;28;20649;-63
2022/01/20 06:07:27;;;;;;;10.45;4.07;;;2.70;92.50;;;;;;5054437;28;20686;-63
2022/01/20 06:09:54;;;;;;;6.40;3.30;;;2.70;92.50;;;;;;5054396;28;20197;-60
2022/01/20 06:12:21;;;;;;;4.50;3.70;;;2.60;92.40;;;;;;5054364;28;20740;-62
2022/01/20 06:14:49;;;;;;;4.88;3.80;;;2.50;92.70;;;;;;5053063;28;20202;-61
2022/01/20 06:17:16;;;;;;;4.45;3.78;;;2.50;93.00;;;;;;5054376;28;20201;-67
2022/01/20 06:19:43;;;;;;;6.07;3.70;;;2.50;92.90;;;;;;5053381;28;20209;-61
2022/01/20 06:22:13;;;;;;;5.70;3.80;;;2.50;92.90;;;;;;5053781;28;20296;-61
2022/01/20 06:24:41;;;;;;;4.35;3.58;;;2.50;92.80;;;;;;5054315;28;20683;-61
2022/01/20 06:27:08;;;;;;;4.70;2.97;;;2.60;92.60;;;;;;5054040;28;20225;-57
2022/01/20 06:29:34;;;;;;;4.70;3.58;;;2.60;92.60;;;;;;5052879;28;20659;-60
2022/01/20 06:32:03;;;;;;;4.03;2.92;;;2.60;92.40;;;;;;5054102;28;20270;-62
2022/01/20 06:34:30;;;;;;;5.65;3.25;;;2.60;92.30;;;;;;5054242;28;20215;-63
2022/01/20 06:36:57;;;;;;;5.13;3.80;;;2.80;92.30;;;;;;5053671;28;20209;-62
2022/01/20 06:39:24;;;;;;;3.58;3.22;;;2.80;91.90;;;;;;5053853;28;20236;-61
2022/01/20 06:41:51;;;;;;;5.55;3.78;;;2.80;91.50;;;;;;5053810;28;20208;-62
2022/01/20 06:44:21;;;;;;;6.93;4.13;;;2.70;91.70;;;;;;5052534;28;20212;-61
2022/01/20 06:46:48;;;;;;;5.43;3.80;;;2.70;92.20;;;;;;5053795;28;20208;-61
2022/01/20 06:49:18;;;;;;;5.13;3.90;;;2.80;92.10;;;;;;5053870;28;20241;-63
2022/01/20 06:51:45;;;;;;;5.97;4.05;;;2.70;92.00;;;;;;5053524;28;20201;-62
2022/01/20 06:54:12;;;;;;;6.03;3.50;;;2.60;92.50;;;;;;5053672;28;20212;-62
2022/01/20 06:56:41;;;;;;;3.65;2.95;;;2.60;92.80;;;;;;5053675;28;20208;-61
2022/01/20 06:59:08;;;;;;;4.68;3.03;;;2.80;93.10;;;;;;5052138;28;20233;-58
2022/01/20 07:01:35;;;;;;;4.28;3.60;;;2.90;92.20;;;;;;5053447;28;20206;-61
2022/01/20 07:04:02;;;;;;;2.70;2.50;;;3.00;92.20;;;;;;5053328;28;20211;-62
2022/01/20 07:06:31;;;;;;;4.43;3.13;;;3.10;91.70;;;;;;5053300;28;20664;-62
2022/01/20 07:08:58;;;;;;;4.95;3.40;;;2.90;90.70;;;;;;5053558;28;20276;-62
2022/01/20 07:11:25;;;;;;;4.38;3.25;;;2.90;90.90;;;;;;5053445;28;20564;-60
2022/01/20 07:13:52;;;;;;;3.97;3.28;;;2.70;90.40;;;;;;5051912;28;20233;-61
2022/01/20 07:16:18;;;;;;;4.50;3.70;;;2.60;91.10;;;;;;5053184;28;20295;-62
2022/01/20 07:18:45;;;;;;;6.45;3.90;;;2.60;91.30;;;;;;5053166;28;20320;-61
2022/01/20 07:21:13;;;;;;;5.88;4.15;;;2.50;91.40;;;;;;5053101;28;20208;-62
2022/01/20 07:23:41;;;;;;;5.50;4.05;;;2.50;91.70;;;;;;5053193;28;20202;-61
2022/01/20 07:26:08;;;;;;;5.25;3.97;;;2.50;91.70;;;;;;5052912;28;20783;-66
2022/01/20 07:28:35;;;;;;;3.78;3.47;;;2.50;91.50;;;;;;5051681;28;20757;-59
2022/01/20 07:31:02;;;;;;;4.55;4.15;;;2.50;91.20;;;;;;5052769;28;20292;-61
2022/01/20 07:33:29;;;;;;;10.18;4.50;;;2.30;91.40;;;;;;5052876;28;20674;-62
2022/01/20 07:35:56;;;;;;;8.73;4.65;;;2.20;92.10;;;;;;5052923;28;20203;-61
2022/01/20 07:38:23;;;;;;;4.63;3.10;;;2.10;92.30;;;;;;5052636;28;20236;-61
2022/01/20 07:40:52;;;;;;;7.40;3.72;;;2.10;92.60;;;;;;5052824;28;20292;-61
2022/01/20 07:43:19;;;;;;;9.00;3.80;;;2.10;92.50;;;;;;5051475;28;20205;-62
2022/01/20 07:45:46;;;;;;;9.45;3.67;;;2.10;92.60;;;;;;5052588;28;20666;-62
2022/01/20 07:48:13;;;;;;;3.92;3.50;;;2.20;92.60;;;;;;5052707;28;20205;-65
2022/01/20 07:50:40;;;;;;;5.82;3.22;;;2.20;91.90;;;;;;5052720;28;20205;-60
2022/01/20 07:53:07;;;;;;;4.68;3.30;;;2.20;91.80;;;;;;5052582;28;20579;-61
2022/01/20 07:55:34;;;;;;;6.20;3.50;;;2.20;91.70;;;;;;5052744;28;20201;-59
2022/01/20 07:58:02;;;;;;;4.90;3.75;;;2.20;91.60;;;;;;5052608;28;20208;-60
2022/01/20 08:00:29;;;;;;;5.40;3.50;;;2.20;91.60;;;;;;5051367;28;20201;-61
2022/01/20 08:02:56;;;;;;;6.68;3.63;;;2.10;91.50;;;;;;5052732;28;20576;-62
2022/01/20 08:05:23;;;;;;;7.43;3.47;;;2.30;91.50;;;;;;5052638;28;20300;-60
2022/01/20 08:07:50;;;;;;;5.25;3.72;;;2.10;90.90;;;;;;5052325;28;20205;-60
2022/01/20 08:10:17;;;;;;;4.80;3.75;;;2.10;91.20;;;;;;5052701;28;20563;-60
2022/01/20 08:12:44;;;;;;;4.43;3.58;;;2.10;91.20;;;;;;5052359;28;20814;-60
2022/01/20 08:15:15;;;;;;;6.18;3.70;;;2.10;90.90;;;;;;5051008;28;20208;-62
2022/01/20 08:17:42;;;;;;;7.97;3.58;;;2.10;90.80;;;;;;5052495;28;20281;-62
2022/01/20 08:20:10;;;;;;;7.50;3.75;;;2.20;90.70;;;;;;5052402;28;20229;-60
2022/01/20 08:22:37;;;;;;;7.63;3.97;;;2.20;90.10;;;;;;5052239;28;20674;-61
2022/01/20 08:25:07;;;;;;;4.07;3.67;;;2.30;90.10;;;;;;5052300;28;20311;-60
2022/01/20 08:27:34;;;;;;;10.07;3.70;;;2.40;90.10;;;;;;5052246;28;20225;-62
2022/01/20 08:30:01;;;;;;;5.10;3.40;;;2.50;89.80;;;;;;5051064;28;20752;-59
2022/01/20 08:32:29;;;;;;;5.75;3.78;;;2.50;88.90;;;;;;5052414;28;20205;-57
2022/01/20 08:34:56;;;;;;;8.77;4.30;;;2.50;88.50;;;;;;5052293;28;20212;-59
2022/01/20 08:37:23;;;;;;;6.80;4.50;;;2.40;88.90;;;;;;5052009;28;20300;-59
2022/01/20 08:39:49;;;;;;;6.78;3.80;;;2.50;88.90;;;;;;5052086;28;20707;-55
2022/01/20 08:42:16;;;;;;;7.60;4.30;;;2.50;88.80;;;;;;5052187;28;20201;-59
2022/01/20 08:44:43;;;;;;;5.55;3.67;;;2.50;89.10;;;;;;5053489;28;20670;-60
2022/01/20 08:47:16;;;;;;;9.15;3.70;;;2.60;88.70;;;;;;5056136;28;20229;-61
2022/01/20 08:49:44;;;;;;;8.85;4.07;;;2.60;88.50;;;;;;5055972;28;20202;-57
2022/01/20 08:52:11;;;;;;;6.90;4.20;;;2.50;88.30;;;;;;5055923;28;20212;-55
2022/01/20 08:54:38;;;;;;;6.72;4.10;;;2.60;88.30;;;;;;5055819;28;20201;-55
2022/01/20 08:57:06;;;;;;;7.22;4.50;;;2.60;87.80;;;;;;5055887;28;20565;-56
2022/01/20 08:59:33;;;;;;;6.88;4.15;;;2.60;88.40;;;;;;5054356;28;20229;-60
2022/01/20 09:02:00;;;;;;;7.05;4.18;;;2.50;88.00;;;;;;5055807;28;20202;-57
2022/01/20 09:04:27;;;;;;;6.93;4.53;;;2.50;88.20;;;;;;5055804;28;20202;-59
2022/01/20 09:06:55;;;;;;;7.60;3.83;;;2.70;88.40;;;;;;5055569;28;20237;-55
2022/01/20 09:09:22;;;;;;;8.48;4.47;;;2.80;88.20;;;;;;5055488;28;20248;-61
2022/01/20 09:12:04;;;;;;;8.75;3.92;;;2.90;87.50;;;;;;5055330;28;20211;-58
2022/01/20 09:17:15;;;;;;;10.07;4.95;;;3.00;86.50;;;;;;5055526;28;20223;-59
2022/01/20 09:19:42;;;;;;;10.57;4.28;;;2.90;86.40;;;;;;5055299;28;20233;-56
2022/01/20 09:22:11;;;;;;;6.30;3.75;;;3.00;86.30;;;;;;5055336;28;20205;-57
2022/01/20 09:24:38;;;;;;;3.90;3.58;;;2.90;86.20;;;;;;5055249;28;20201;-59
2022/01/20 09:27:06;;;;;;;5.80;4.15;;;3.00;86.60;;;;;;5055275;28;20236;-57
2022/01/20 09:29:33;;;;;;;4.57;3.80;;;3.10;85.70;;;;;;5053907;28;20288;-59
2022/01/20 09:32:00;;;;;;;5.05;4.32;;;3.10;85.60;;;;;;5055310;28;20209;-59
2022/01/20 09:34:28;;;;;;;7.90;3.95;;;3.10;85.70;;;;;;5055055;28;20198;-61
2022/01/20 09:36:55;;;;;;;5.28;3.63;;;3.20;85.70;;;;;;5054897;28;20224;-60
2022/01/20 09:39:23;;;;;;;8.88;4.80;;;3.20;85.50;;;;;;5054943;28;20255;-59
2022/01/20 09:41:51;;;;;;;6.50;4.57;;;3.20;85.50;;;;;;5054963;28;20205;-56
2022/01/20 09:44:18;;;;;;;8.15;4.60;;;3.30;85.40;;;;;;5053564;28;20259;-58
2022/01/20 09:46:45;;;;;;;4.72;4.10;;;3.30;84.80;;;;;;5054828;28;20212;-58
2022/01/20 09:49:12;;;;;;;7.28;4.80;;;3.50;85.20;;;;;;5054752;28;20201;-54
2022/01/20 09:51:39;;;;;;;5.45;4.15;;;3.60;84.20;;;;;;5054682;28;20316;-56
2022/01/20 09:54:07;;;;;;;5.00;4.40;;;3.60;84.10;;;;;;5054598;28;20225;-59
2022/01/20 09:56:37;;;;;;;9.73;4.10;;;3.70;84.30;;;;;;5054717;28;20652;-61
2022/01/20 09:59:04;;;;;;;6.93;4.85;;;3.70;83.20;;;;;;5053345;28;20585;-59
2022/01/20 10:01:39;;;;;;;7.05;4.60;;;3.60;83.50;;;;;;5054634;28;20203;-58
2022/01/20 10:04:06;;;;;;;6.25;4.13;;;3.50;84.40;;;;;;5054628;28;20284;-60
2022/01/20 10:06:34;;;;;;;6.90;4.68;;;3.50;83.90;;;;;;5054566;28;20292;-56
2022/01/20 10:09:02;;;;;;;6.40;4.07;;;3.50;84.40;;;;;;5054242;28;20237;-60
2022/01/20 10:11:30;;;;;;;6.90;4.40;;;3.70;84.60;;;;;;5054440;28;20208;-62
2022/01/20 10:14:00;;;;;;;4.53;4.13;;;3.90;84.60;;;;;;5052933;28;20233;-61
2022/01/20 10:16:32;;;;;;;5.75;4.40;;;4.00;83.50;;;;;;5054387;28;20213;-61
2022/01/20 10:19:00;;;;;;;6.43;4.68;;;4.10;82.90;;;;;;5054192;28;20236;-58
2022/01/20 10:21:30;;;;;;;7.65;4.82;;;4.30;81.90;;;;;;5054233;28;20197;-60
2022/01/20 10:24:06;;;;;;;5.57;4.38;;;4.20;82.30;;;;;;5054207;28;20241;-61
2022/01/20 10:26:34;;;;;;;5.35;4.50;;;4.20;82.50;;;;;;5054029;28;20229;-61
2022/01/20 10:29:05;;;;;;;8.18;4.75;;;4.30;82.00;;;;;;5052836;28;20270;-61
2022/01/20 10:31:35;;;;;;;6.10;4.47;;;4.30;82.00;;;;;;5054251;28;20201;-60
2022/01/20 10:34:03;;;;;;;5.32;4.63;;;4.10;81.50;;;;;;5054050;28;20211;-61
2022/01/20 10:36:30;;;;;;;5.13;4.72;;;4.20;82.10;;;;;;5053984;28;20212;-60
2022/01/20 10:38:59;;;;;;;5.38;4.38;;;4.30;81.10;;;;;;5033442;28;20687;-59
2022/01/20 10:41:31;;;;;;;7.85;5.00;;;4.50;81.10;;;;;;5033932;28;20581;-60
2022/01/20 10:44:07;;;;;;;6.57;5.60;;;4.60;80.50;;;;;;5032657;28;20206;-60
2022/01/20 10:46:49;;;;;;;7.07;5.32;;;4.70;79.40;;;;;;5034024;28;20281;-60
2022/01/20 10:49:17;;;;;;;6.20;4.90;;;4.70;79.80;;;;;;5033689;28;20293;-57
2022/01/20 10:51:44;;;;;;;8.60;5.00;;;4.70;79.40;;;;;;5033761;28;20289;-62
2022/01/20 10:54:14;;;;;;;9.75;5.35;;;4.70;80.00;;;;;;5033624;28;20213;-58
2022/01/20 10:56:51;;;;;;;8.13;5.45;;;4.50;78.90;;;;;;5033760;28;20198;-60
2022/01/20 10:59:20;;;;;;;5.93;5.05;;;4.40;79.90;;;;;;5032187;28;20237;-61
2022/01/20 11:01:59;;;;;;;5.78;5.28;;;4.30;80.70;;;;;;5033567;28;20202;-60
2022/01/20 11:04:26;;;;;;;6.80;5.35;;;4.30;80.10;;;;;;5033499;28;20205;-60
2022/01/20 11:06:55;;;;;;;7.22;4.80;;;4.30;80.10;;;;;;5035908;28;20205;-59
2022/01/20 11:09:24;;;;;;;5.75;5.25;;;4.30;79.80;;;;;;5053406;28;20233;-62
2022/01/20 11:11:52;;;;;;;7.38;5.38;;;4.30;79.90;;;;;;5053251;28;20301;-59
2022/01/20 11:14:20;;;;;;;6.90;5.38;;;4.30;79.70;;;;;;5052047;28;20213;-59
2022/01/20 11:16:47;;;;;;;6.65;5.50;;;4.30;79.90;;;;;;5053193;28;20212;-61
2022/01/20 11:19:16;;;;;;;6.85;6.07;;;4.30;80.60;;;;;;5053070;28;20232;-59
2022/01/20 11:21:44;;;;;;;6.35;5.13;;;4.40;80.00;;;;;;5053193;28;20206;-60
2022/01/20 11:24:21;;;;;;;6.68;5.63;;;4.20;80.80;;;;;;5052917;28;20201;-60
2022/01/20 11:26:53;;;;;;;9.32;5.43;;;4.30;80.80;;;;;;5053031;28;20236;-59
2022/01/20 11:29:22;;;;;;;5.65;5.15;;;4.20;80.20;;;;;;5051776;28;20236;-59
2022/01/20 11:31:50;;;;;;;5.82;5.32;;;4.20;80.70;;;;;;5053236;28;20197;-63
2022/01/20 11:34:18;;;;;;;9.10;5.15;;;4.00;80.50;;;;;;5053046;28;20660;-61
2022/01/20 11:36:45;;;;;;;8.50;5.40;;;3.90;81.40;;;;;;5053001;28;20236;-61
2022/01/20 11:39:13;;;;;;;10.70;5.22;;;3.80;81.10;;;;;;5052863;28;20220;-60
2022/01/20 11:41:43;;;;;;;7.18;5.50;;;3.70;81.90;;;;;;5052768;28;20249;-62
2022/01/20 11:44:13;;;;;;;6.00;4.60;;;3.60;81.50;;;;;;5051450;28;20209;-58
2022/01/20 11:46:44;;;;;;;9.40;4.72;;;3.60;81.90;;;;;;5052870;28;20212;-60
2022/01/20 11:49:12;;;;;;;6.88;4.90;;;3.70;82.10;;;;;;5052747;28;20299;-59
2022/01/20 11:51:45;;;;;;;5.72;5.00;;;3.90;82.60;;;;;;5052729;28;20202;-60
2022/01/20 11:54:12;;;;;;;6.60;5.90;;;4.80;81.80;;;;;;5052433;28;20202;-60
2022/01/20 11:56:41;;;;;;;7.18;6.03;;;5.60;76.30;;;;;;5052763;28;20215;-59
2022/01/20 11:59:11;;;;;;;5.40;5.00;;;5.70;74.20;;;;;;5051355;28;20197;-60
2022/01/20 12:01:48;;;;;;;8.90;5.93;;;5.80;75.30;;;;;;5052632;28;20722;-60
2022/01/20 12:04:15;;;;;;;7.63;6.95;;;5.70;75.20;;;;;;5052660;28;20201;-59
2022/01/20 12:06:45;;;;;;;5.00;4.60;;;5.70;73.70;;;;;;5052293;28;20209;-60
2022/01/20 12:09:14;;;;;;;6.55;6.00;;;5.60;74.50;;;;;;5052505;28;20295;-58
2022/01/20 12:11:44;;;;;;;5.75;5.35;;;5.30;74.80;;;;;;5052313;28;20197;-56
2022/01/20 12:14:12;;;;;;;8.68;6.63;;;4.90;75.20;;;;;;5051336;28;20216;-60
2022/01/20 12:16:41;;;;;;;6.78;6.18;;;5.00;76.60;;;;;;5052517;28;20209;-59
2022/01/20 12:19:12;;;;;;;6.13;5.60;;;5.30;75.10;;;;;;5055901;28;20208;-59
2022/01/20 12:21:47;;;;;;;6.95;6.00;;;5.30;75.00;;;;;;5056605;28;20201;-59
2022/01/20 12:24:14;;;;;;;6.97;6.45;;;5.10;74.80;;;;;;5056386;28;20581;-60
2022/01/20 12:26:41;;;;;;;5.93;5.25;;;4.80;75.70;;;;;;5056576;28;20208;-58
2022/01/20 12:29:10;;;;;;;9.93;6.85;;;4.50;76.40;;;;;;5055298;28;20301;-60
2022/01/20 12:31:47;;;;;;;9.32;7.60;;;4.40;76.80;;;;;;5056217;28;20209;-59
2022/01/20 12:34:16;;;;;;;7.47;6.63;;;4.10;77.80;;;;;;5056421;28;20208;-60
2022/01/20 12:36:51;;;;;;;5.78;5.28;;;4.10;78.70;;;;;;5056184;28;20197;-60
2022/01/20 12:39:23;;;;;;;6.32;4.63;;;4.10;78.80;;;;;;5056065;28;20200;-59
2022/01/20 12:41:55;;;;;;;5.05;4.75;;;4.10;78.90;;;;;;5056188;28;20202;-59
2022/01/20 12:44:22;;;;;;;4.03;3.83;;;4.00;79.40;;;;;;5054845;28;20205;-58
2022/01/20 12:46:48;;;;;;;4.50;4.10;;;3.80;80.30;;;;;;5056159;28;20208;-59
2022/01/20 12:49:19;;;;;;;4.03;3.13;;;3.60;80.60;;;;;;5055969;28;20698;-61
2022/01/20 12:51:48;;;;;;;3.85;3.53;;;3.40;81.00;;;;;;5055987;28;20205;-58
2022/01/20 12:54:17;;;;;;;4.75;3.30;;;3.20;81.90;;;;;;5055668;28;20244;-58
2022/01/20 12:56:46;;;;;;;3.50;3.20;;;2.90;83.30;;;;;;5055744;28;20747;-60
2022/01/20 12:59:20;;;;;;;3.40;3.10;;;2.80;83.60;;;;;;5054722;28;20206;-59
2022/01/20 13:01:48;;;;;;;5.40;3.00;;;2.70;84.00;;;;;;5055825;28;20308;-56
2022/01/20 13:04:21;;;;;;;5.97;3.28;;;2.60;83.90;;;;;;5055743;28;20206;-59
2022/01/20 13:06:52;;;;;;;5.38;3.75;;;2.50;84.10;;;;;;5055515;28;20854;-60
2022/01/20 13:09:22;;;;;;;3.67;3.38;;;2.40;84.60;;;;;;5055401;28;20206;-59
2022/01/20 13:11:55;;;;;;;6.43;3.22;;;2.20;85.10;;;;;;5055377;28;20201;-59
2022/01/20 13:14:34;;;;;;;7.55;3.50;;;2.10;85.60;;;;;;5054410;28;20275;-60
2022/01/20 13:17:01;;;;;;;4.80;3.40;;;2.10;85.70;;;;;;5055314;28;20228;-59
2022/01/20 13:19:37;;;;;;;5.10;3.50;;;2.10;85.60;;;;;;5055459;28;20205;-60
2022/01/20 13:22:07;;;;;;;9.43;3.17;;;2.00;85.60;;;;;;5055449;28;20205;-58
2022/01/20 13:24:35;;;;;;;4.97;3.88;;;2.00;86.30;;;;;;5055134;28;20581;-59
2022/01/20 13:27:06;;;;;;;5.32;3.10;;;1.90;86.50;;;;;;5055278;28;20201;-58
2022/01/20 13:29:42;;;;;;;3.72;3.13;;;2.00;87.10;;;;;;5053325;28;20296;-60
2022/01/20 13:32:09;;;;;;;6.20;3.50;;;2.00;87.20;;;;;;5054985;28;20287;-59
2022/01/20 13:34:38;;;;;;;3.38;3.08;;;2.10;87.10;;;;;;5055142;28;20678;-59
2022/01/20 13:37:05;;;;;;;4.50;3.53;;;2.10;87.00;;;;;;5054999;28;20682;-60
2022/01/20 13:39:35;;;;;;;5.20;3.15;;;2.20;87.00;;;;;;5054886;28;20202;-56
2022/01/20 13:42:07;;;;;;;5.80;3.20;;;2.30;86.50;;;;;;5055017;28;20284;-60
2022/01/20 13:47:19;;;;;;;8.45;3.40;;;2.40;86.10;;;;;;5054863;28;20205;-59
2022/01/20 13:49:53;;;;;;;7.68;3.88;;;2.40;86.00;;;;;;5054844;28;20228;-60
2022/01/20 13:52:21;;;;;;;4.50;3.47;;;2.40;86.10;;;;;;5054855;28;20211;-59
2022/01/20 13:54:51;;;;;;;4.03;2.90;;;2.30;86.30;;;;;;5054792;28;20205;-60
2022/01/20 13:57:19;;;;;;;10.80;3.47;;;2.30;86.70;;;;;;5054663;28;20296;-60
2022/01/20 13:59:51;;;;;;;4.72;3.10;;;2.40;86.50;;;;;;5053418;28;20205;-58
2022/01/20 14:02:18;;;;;;;5.20;3.10;;;2.40;86.60;;;;;;5054802;28;20216;-60